createdAt,value
2023-01-27T02:08:41.405Z,25.50
2023-01-27T02:11:10.437Z,27.30
2023-01-27T02:13:39.782Z,25.90
2023-01-27T02:16:10.889Z,27.30
2023-01-27T02:18:42.715Z,27.40
2023-01-27T02:21:11.603Z,24.50
2023-01-27T02:23:48.823Z,23.70
2023-01-27T02:26:47.612Z,23.30
2023-01-27T02:29:16.728Z,22.20
2023-01-27T02:31:46.168Z,23.20
2023-01-27T02:34:21.095Z,21.90
2023-01-27T02:36:51.637Z,21.10
2023-01-27T02:39:22.700Z,20.30
2023-01-27T02:41:53.272Z,21.70
2023-01-27T02:44:22.129Z,21.10
2023-01-27T02:46:51.469Z,20.80
2023-01-27T02:49:20.748Z,22.00
2023-01-27T02:51:50.233Z,21.60
2023-01-27T02:54:19.431Z,23.10
2023-01-27T02:56:48.731Z,22.00
2023-01-27T02:59:20.077Z,23.00
2023-01-27T03:01:49.455Z,24.30
2023-01-27T03:04:18.296Z,23.00
2023-01-27T03:06:49.468Z,23.40
2023-01-27T03:09:18.611Z,27.40
2023-01-27T03:12:06.213Z,23.00
2023-01-27T03:14:55.402Z,20.30
2023-01-27T03:17:43.340Z,20.70
2023-01-27T03:20:12.658Z,21.80
2023-01-27T03:22:42.388Z,23.20
2023-01-27T03:25:14.473Z,21.60
2023-01-27T03:27:44.035Z,23.60
2023-01-27T03:30:29.338Z,26.50
2023-01-27T03:33:10.986Z,26.80
2023-01-27T03:36:14.394Z,23.60
2023-01-27T03:39:10.333Z,22.80
2023-01-27T03:41:58.255Z,25.10
2023-01-27T03:44:47.307Z,21.40
2023-01-27T03:47:16.306Z,25.40
2023-01-27T03:49:45.604Z,28.00
2023-01-27T03:52:14.560Z,28.80
2023-01-27T03:54:43.747Z,28.80
2023-01-27T03:57:12.557Z,30.70
2023-01-27T03:59:41.584Z,29.00
2023-01-27T04:02:29.107Z,27.60
2023-01-27T04:05:18.998Z,27.70
2023-01-27T04:07:48.588Z,26.70
2023-01-27T04:10:17.584Z,28.10
2023-01-27T04:12:51.390Z,28.90
2023-01-27T04:15:20.899Z,29.90
2023-01-27T04:17:50.399Z,30.60
2023-01-27T04:20:20.126Z,30.80
2023-01-27T04:22:49.210Z,29.50
2023-01-27T04:25:19.057Z,30.90
2023-01-27T04:27:48.109Z,30.90
2023-01-27T04:30:18.326Z,32.00
2023-01-27T04:32:51.113Z,30.30
2023-01-27T04:35:23.366Z,32.20
2023-01-27T04:37:54.357Z,35.30
2023-01-27T04:40:23.273Z,34.00
2023-01-27T04:42:54.594Z,37.00
2023-01-27T04:45:23.356Z,39.10
2023-01-27T04:47:52.421Z,38.80
2023-01-27T04:50:21.247Z,37.70
2023-01-27T04:52:50.069Z,40.90
2023-01-27T04:55:19.830Z,41.90
2023-01-27T04:57:48.621Z,40.50
2023-01-27T05:00:18.346Z,40.70
2023-01-27T05:02:49.783Z,44.50
2023-01-27T05:05:18.550Z,42.20
2023-01-27T05:07:47.805Z,43.50
2023-01-27T05:10:17.988Z,43.50
2023-01-27T05:12:47.795Z,29.30
2023-01-27T05:15:17.512Z,43.10
2023-01-27T05:17:47.127Z,40.60
2023-01-27T05:20:17.155Z,42.10
2023-01-27T05:22:46.430Z,41.50
2023-01-27T05:25:15.715Z,49.10
2023-01-27T05:27:44.983Z,47.70
2023-01-27T05:30:14.588Z,42.90
2023-01-27T05:32:44.991Z,46.80
2023-01-27T05:35:14.805Z,37.20
2023-01-27T05:37:43.963Z,50.10
2023-01-27T05:40:13.678Z,36.50
2023-01-27T05:42:46.011Z,40.00
2023-01-27T05:45:15.424Z,31.10
2023-01-27T05:47:46.190Z,28.50
2023-01-27T05:50:17.405Z,29.20
2023-01-27T05:52:46.784Z,33.90
2023-01-27T05:55:18.246Z,28.40
2023-01-27T05:57:54.989Z,30.00
2023-01-27T06:00:24.565Z,27.20
2023-01-27T06:02:55.640Z,23.00
2023-01-27T06:05:24.611Z,24.60
2023-01-27T06:07:54.402Z,24.30
2023-01-27T06:10:24.629Z,25.80
2023-01-27T06:12:53.826Z,30.20
2023-01-27T06:15:23.219Z,26.10
2023-01-27T06:17:52.880Z,27.00
2023-01-27T06:20:22.853Z,31.20
2023-01-27T06:22:51.648Z,28.70
2023-01-27T06:25:21.046Z,30.20
2023-01-27T06:27:56.355Z,35.50
2023-01-27T06:30:25.187Z,28.40
2023-01-27T06:33:01.536Z,30.60
2023-01-27T06:35:39.246Z,32.80
2023-01-27T06:38:12.513Z,35.00
2023-01-27T06:40:41.978Z,38.00
2023-01-27T06:43:14.688Z,31.60
2023-01-27T06:45:43.554Z,29.90
2023-01-27T06:48:15.950Z,30.00
2023-01-27T06:50:44.682Z,31.30
2023-01-27T06:53:17.266Z,30.00
2023-01-27T06:55:46.672Z,28.50
2023-01-27T06:58:16.469Z,30.40
2023-01-27T07:00:45.978Z,27.80
2023-01-27T07:03:18.278Z,28.90
2023-01-27T07:05:47.740Z,27.50
2023-01-27T11:16:02.236Z,52.60
2023-01-27T11:18:36.741Z,47.40
2023-01-27T11:21:07.305Z,47.20
2023-01-27T11:23:40.922Z,45.90
2023-01-27T11:26:16.294Z,47.00
2023-01-27T11:29:03.459Z,50.50
2023-01-27T11:31:56.986Z,49.70
2023-01-27T11:34:54.281Z,44.30
2023-01-27T11:37:31.624Z,42.60
2023-01-27T11:40:00.620Z,42.60
2023-01-27T11:42:35.190Z,41.80
2023-01-27T11:45:04.655Z,42.30
2023-01-27T11:47:38.997Z,44.50
2023-01-27T11:50:13.769Z,38.90
2023-01-27T11:52:43.775Z,38.80
2023-01-27T11:55:22.450Z,40.30
2023-01-27T11:57:58.118Z,42.10
2023-01-27T12:00:31.926Z,37.00
2023-01-27T12:03:28.997Z,34.60
2023-01-27T12:06:03.074Z,37.10
2023-01-27T12:08:50.711Z,35.80
2023-01-27T12:11:24.401Z,36.90
2023-01-27T12:14:02.582Z,37.00
2023-01-27T12:16:34.797Z,34.70
2023-01-27T12:19:18.074Z,34.30
2023-01-27T12:21:50.151Z,37.20
2023-01-27T12:24:27.947Z,31.60
2023-01-27T12:26:56.760Z,34.80
2023-01-27T12:29:29.661Z,39.90
2023-01-27T12:32:06.250Z,36.30
2023-01-27T12:34:36.962Z,39.70
2023-01-27T12:37:06.965Z,38.70
2023-01-27T12:57:48.889Z,33.50
2023-01-27T13:00:19.510Z,35.50
2023-01-27T13:02:48.696Z,41.30
2023-01-27T13:05:19.423Z,34.00
2023-01-27T13:07:50.869Z,33.60
2023-01-27T13:10:23.985Z,32.70
2023-01-27T13:12:56.365Z,32.80
2023-01-27T13:15:30.800Z,32.90
2023-01-27T13:18:00.085Z,31.10
2023-01-27T13:20:51.637Z,33.50
2023-01-27T13:23:23.807Z,35.60
2023-01-27T13:26:10.054Z,32.60
2023-01-27T13:28:53.436Z,30.70
2023-01-27T13:31:59.807Z,31.30
2023-01-27T13:34:49.846Z,32.30
2023-01-27T13:37:34.274Z,32.80
2023-01-27T13:40:30.846Z,31.10
2023-01-27T13:43:05.738Z,31.80
2023-01-27T13:45:46.427Z,32.90
2023-01-27T13:48:22.895Z,41.10
2023-01-27T13:51:06.874Z,35.00
2023-01-27T13:53:35.640Z,36.90
2023-01-27T13:56:19.470Z,36.20
2023-01-27T13:59:21.202Z,34.40
2023-01-27T14:02:01.893Z,36.80
2023-01-27T14:07:38.998Z,36.40
2023-01-27T14:10:49.973Z,23.30
2023-01-27T14:13:42.830Z,34.20
2023-01-27T14:16:14.785Z,35.70
2023-01-27T14:18:47.339Z,46.80
2023-01-27T14:21:39.824Z,35.00
2023-01-27T14:24:21.468Z,29.00
2023-01-27T14:26:53.051Z,28.80
2023-01-27T14:29:51.121Z,33.70
2023-01-27T14:32:35.684Z,29.90
2023-01-27T14:35:07.891Z,30.30
2023-01-27T14:37:38.071Z,36.20
2023-01-27T14:40:37.574Z,34.20
2023-01-27T14:43:26.760Z,33.60
2023-01-27T14:46:16.073Z,30.80
2023-01-27T14:49:10.613Z,30.00
2023-01-27T14:51:51.080Z,31.20
2023-01-27T14:54:52.012Z,39.30
2023-01-27T14:57:25.943Z,33.40
2023-01-27T15:00:23.999Z,30.70
2023-01-27T15:03:23.542Z,30.00
2023-01-27T15:06:02.345Z,29.10
2023-01-27T15:09:09.302Z,28.90
2023-01-27T15:11:38.291Z,28.40
2023-01-27T15:14:22.449Z,28.30
2023-01-27T15:17:12.869Z,30.30
2023-01-27T15:20:13.658Z,33.00
2023-01-27T15:23:04.358Z,35.80
2023-01-27T15:25:36.663Z,33.00
2023-01-27T15:28:05.846Z,27.50
2023-01-27T15:30:37.548Z,28.00
2023-01-27T15:33:44.794Z,25.90
2023-01-27T15:36:27.868Z,30.80
2023-01-27T15:39:10.739Z,29.50
2023-01-27T15:41:54.775Z,29.40
2023-01-27T15:44:31.563Z,41.50
2023-01-27T15:47:08.532Z,56.50
2023-01-27T15:49:42.855Z,40.30
2023-01-27T15:52:19.123Z,37.90
2023-01-27T15:54:50.279Z,37.10
2023-01-27T15:59:59.162Z,36.80
2023-01-27T16:02:29.688Z,43.60
2023-01-27T16:05:16.208Z,55.60
2023-01-27T16:07:51.262Z,59.70
2023-01-27T16:10:22.637Z,52.20
2023-01-27T16:13:13.108Z,44.30
2023-01-27T16:15:47.218Z,37.30
2023-01-27T20:18:33.913Z,28.10
2023-01-27T20:21:02.342Z,27.20
2023-01-27T20:23:30.343Z,28.50
2023-01-27T20:25:58.321Z,29.10
2023-01-27T20:28:28.009Z,29.00
2023-01-27T20:30:56.270Z,28.30
2023-01-27T20:33:25.420Z,29.90
2023-01-27T20:35:54.367Z,29.40
2023-01-27T20:38:25.687Z,29.40
2023-01-27T20:40:54.462Z,31.30
2023-01-27T20:43:34.773Z,30.40
2023-01-27T20:48:35.877Z,33.10
2023-01-27T20:51:09.017Z,27.30
2023-01-27T20:53:43.217Z,30.40
2023-01-27T20:56:21.227Z,30.20
2023-01-27T20:58:49.504Z,29.60
2023-01-27T21:01:22.162Z,31.10
2023-01-27T21:03:50.233Z,30.70
2023-01-27T21:06:19.621Z,29.70
2023-01-27T21:08:48.786Z,28.50
2023-01-27T21:11:18.363Z,30.10
2023-01-27T21:13:48.015Z,29.70
2023-01-27T21:16:15.824Z,28.30
2023-01-27T21:18:55.444Z,29.80
2023-01-27T21:21:25.117Z,29.00
2023-01-27T21:24:00.482Z,29.00
2023-01-27T21:26:28.383Z,28.60
2023-01-27T21:28:57.160Z,28.50
2023-01-27T21:31:29.853Z,28.30
2023-01-27T21:34:01.296Z,30.10
2023-01-27T21:36:30.303Z,29.60
2023-01-27T21:39:02.129Z,27.40
2023-01-27T21:41:50.837Z,29.40
2023-01-27T21:44:45.773Z,29.80
2023-01-27T21:47:19.304Z,30.10
2023-01-27T21:50:02.586Z,29.40
2023-01-27T21:52:50.608Z,27.80
2023-01-27T21:55:23.349Z,30.90
2023-01-27T21:57:51.899Z,29.70
2023-01-27T22:00:43.956Z,28.70
2023-01-27T22:03:11.269Z,28.40
2023-01-27T22:05:40.275Z,28.60
2023-01-27T22:08:27.841Z,28.60
2023-01-27T22:11:06.226Z,28.00
2023-01-27T22:13:34.790Z,31.20
2023-01-27T22:16:04.545Z,31.20
2023-01-27T22:18:32.403Z,30.50
2023-01-27T22:21:01.072Z,30.30
2023-01-27T22:23:28.603Z,30.60
2023-01-27T22:25:57.775Z,29.30
2023-01-27T22:28:26.401Z,30.50
2023-01-27T22:30:54.212Z,30.80
2023-01-27T22:33:24.076Z,31.80
2023-01-27T22:36:02.955Z,30.20
2023-01-27T22:38:30.689Z,31.20
2023-01-27T22:40:58.330Z,30.80
2023-01-27T22:43:26.835Z,31.10
2023-01-27T22:45:54.229Z,31.40
2023-01-27T22:48:22.220Z,29.50
2023-01-27T22:50:49.586Z,31.50
2023-01-27T22:53:17.159Z,33.00
2023-01-27T22:55:44.578Z,35.20
2023-01-27T22:58:14.109Z,32.30
2023-01-27T23:00:42.195Z,35.90
2023-01-27T23:03:12.589Z,33.50
2023-01-27T23:08:09.267Z,32.20
2023-01-27T23:10:38.982Z,31.30
2023-01-27T23:13:07.956Z,31.30
2023-01-27T23:15:45.963Z,34.60
2023-01-27T23:18:13.306Z,31.90
2023-01-27T23:20:41.789Z,28.70
2023-01-27T23:23:10.360Z,28.10
2023-01-27T23:25:44.691Z,29.50
2023-01-27T23:28:13.045Z,27.90
2023-01-27T23:31:05.026Z,27.20
2023-01-27T23:33:40.659Z,25.50
2023-01-27T23:36:08.835Z,27.30
2023-01-27T23:38:36.478Z,30.70
2023-01-27T23:41:08.132Z,31.00
2023-01-27T23:43:35.591Z,30.40
2023-01-27T23:46:03.082Z,29.30
2023-01-27T23:48:32.516Z,26.70
2023-01-27T23:51:06.331Z,27.70
2023-01-27T23:53:33.747Z,28.20
2023-01-27T23:56:01.279Z,27.30
2023-01-27T23:58:28.964Z,25.10
